Terminal Aerodrome Forecast
Issued by NWS Tulsa, OK

Home | Current Version | Previous Version | Text Only | Print | Product List | Glossary On
Versions: 1 2 3 4 5 6 7 8 9 10 11 12 13
000
FTUS44 KTSA 290500
TAFTUL
TAF
KTUL 290521Z 2906/3006 15005KT P6SM VCSH SCT060 OVC150
     FM291200 18008KT P6SM SCT050 OVC250
      TEMPO 2914/2918 4SM -TSRA BR OVC050CB
     FM291800 20007KT P6SM BKN250 PROB30 2918/2924 P6SM -TSRA
      BKN050CB
     FM300000 17004KT P6SM FEW250 PROB30 3000/3006 P6SM -TSRA
      BKN050CB=

USA.gov is the U.S. government's official web portal to all federal, state and local government web resources and services.